Time;durP1;ratioP1;P1;durP2;ratioP2;P2;SDS_P1;SDS_P2;PMS_P1;PMS_P2;Temp;Humidity;BMP_temperature;BMP_pressure;BME280_temperature;BME280_humidity;BME280_pressure;Samples;Min_cycle;Max_cycle;Signal;HPM_P1;HPM_P2
2023/08/28 00:00:31;;;;;;;8.10;6.20;;;;;;;16.05;100.00;99989.09;105544;1257;72791;-65
2023/08/28 00:03:18;;;;;;;6.50;5.40;;;;;;;15.96;100.00;99988.42;105544;1257;69160;-65
2023/08/28 00:05:45;;;;;;;8.00;5.70;;;;;;;15.90;100.00;99984.98;105557;1257;69167;-65
2023/08/28 00:08:12;;;;;;;6.00;4.90;;;;;;;15.86;100.00;99986.46;105618;1254;74974;-65
2023/08/28 00:10:41;;;;;;;6.80;5.00;;;;;;;15.84;100.00;99986.23;105567;1254;83012;-65
2023/08/28 00:13:08;;;;;;;6.20;4.70;;;;;;;15.84;100.00;99987.81;105593;1251;73848;-65
2023/08/28 00:15:35;;;;;;;6.10;4.80;;;;;;;15.77;100.00;99985.14;105548;1252;69153;-65
2023/08/28 00:18:03;;;;;;;5.90;4.70;;;;;;;15.72;100.00;99986.66;105592;1256;69173;-65
2023/08/28 00:20:30;;;;;;;5.00;3.80;;;;;;;15.69;100.00;99992.52;105561;1256;74347;-65
2023/08/28 00:22:58;;;;;;;9.00;4.40;;;;;;;15.69;100.00;99997.45;105533;1256;83533;-65
2023/08/28 00:25:24;;;;;;;6.40;4.30;;;;;;;15.69;100.00;100005.55;105545;1256;73004;-65
2023/08/28 00:27:51;;;;;;;4.90;4.40;;;;;;;15.65;100.00;100004.73;105539;1257;69190;-65
2023/08/28 00:30:18;;;;;;;5.20;4.50;;;;;;;15.61;100.00;100009.36;105483;1257;69055;-65
2023/08/28 00:32:45;;;;;;;7.50;4.10;;;;;;;15.61;100.00;100006.74;105633;1256;74726;-66
2023/08/28 00:35:12;;;;;;;5.60;4.10;;;;;;;15.58;100.00;100010.27;105469;1257;83591;-65
2023/08/28 00:37:41;;;;;;;4.10;3.00;;;;;;;15.57;100.00;100007.50;105600;1252;71741;-67
2023/08/28 00:40:10;;;;;;;5.00;3.50;;;;;;;15.58;100.00;100009.41;105560;1254;69069;-67
2023/08/28 00:42:37;;;;;;;5.10;3.50;;;;;;;15.61;100.00;100004.27;105603;1256;69100;-67
2023/08/28 00:45:05;;;;;;;6.90;3.30;;;;;;;15.60;100.00;99998.86;105605;1258;73848;-67
2023/08/28 00:47:32;;;;;;;4.30;2.60;;;;;;;15.56;100.00;100001.79;105475;1257;83684;-67
2023/08/28 00:49:59;;;;;;;6.60;3.50;;;;;;;15.51;100.00;100002.06;105570;1254;73692;-67
2023/08/28 00:52:26;;;;;;;3.80;2.70;;;;;;;15.48;100.00;100003.84;105462;1253;69156;-67
2023/08/28 00:54:53;;;;;;;5.90;3.30;;;;;;;15.45;100.00;100004.77;105573;1257;69191;-67
2023/08/28 00:57:21;;;;;;;4.80;3.00;;;;;;;15.45;100.00;100005.09;105482;1255;73960;-67
2023/08/28 00:59:48;;;;;;;5.80;3.00;;;;;;;15.45;100.00;100005.99;105587;1256;83579;-67
2023/08/28 01:02:15;;;;;;;4.50;2.60;;;;;;;15.43;100.00;100001.89;105473;1254;71540;-67
2023/08/28 01:04:42;;;;;;;5.40;3.10;;;;;;;15.41;100.00;99994.63;105601;1252;69194;-67
2023/08/28 01:07:16;;;;;;;7.10;2.60;;;;;;;15.42;100.00;99991.08;105507;1257;70953;-67
2023/08/28 01:10:12;;;;;;;4.40;3.10;;;;;;;15.40;100.00;99979.87;105616;1256;74475;-67
2023/08/28 01:12:44;;;;;;;5.30;3.00;;;;;;;15.44;100.00;99985.16;105598;1255;83203;-67
2023/08/28 01:15:20;;;;;;;6.50;2.70;;;;;;;15.45;100.00;99997.57;105508;1257;73728;-67
2023/08/28 01:17:50;;;;;;;4.70;2.80;;;;;;;15.47;100.00;100006.94;105599;1256;69090;-67
2023/08/28 01:20:17;;;;;;;4.20;2.60;;;;;;;15.52;100.00;100014.03;105604;1256;69103;-67
2023/08/28 01:22:57;;;;;;;6.20;3.20;;;;;;;15.55;100.00;100018.04;105543;1254;73959;-67
2023/08/28 01:25:25;;;;;;;7.30;2.70;;;;;;;15.57;100.00;100016.84;105498;1257;83320;-67
2023/08/28 01:27:53;;;;;;;5.70;2.70;;;;;;;15.57;100.00;100019.14;105566;1254;72650;-67
2023/08/28 01:30:21;;;;;;;3.30;2.50;;;;;;;15.57;100.00;100026.39;105500;1254;69190;-67
2023/08/28 01:32:48;;;;;;;4.10;2.20;;;;;;;15.56;100.00;100024.14;105634;1257;69137;-67
2023/08/28 01:35:25;;;;;;;4.50;2.40;;;;;;;15.56;100.00;100020.95;105563;1254;74715;-67
2023/08/28 01:38:17;;;;;;;6.00;2.50;;;;;;;15.60;100.00;100016.15;105576;1257;82555;-67
2023/08/28 01:40:52;;;;;;;3.60;2.60;;;;;;;15.62;100.00;100017.77;105522;1254;72633;-67
2023/08/28 01:43:21;;;;;;;5.00;2.50;;;;;;;15.61;100.00;100021.19;105480;1252;69179;-67
2023/08/28 01:45:52;;;;;;;4.00;2.00;;;;;;;15.62;100.00;100023.55;105652;1254;69240;-67
2023/08/28 01:48:19;;;;;;;4.90;2.30;;;;;;;15.63;100.00;100024.41;105498;1254;74666;-66
2023/08/28 01:50:48;;;;;;;3.10;2.30;;;;;;;15.62;100.00;100035.35;105616;1254;81575;-67
2023/08/28 01:53:15;;;;;;;3.00;2.20;;;;;;;15.63;100.00;100032.51;105477;1257;72605;-67
2023/08/28 01:55:45;;;;;;;4.20;2.30;;;;;;;15.63;100.00;100015.39;105605;1254;69156;-67
2023/08/28 01:58:12;;;;;;;3.50;2.10;;;;;;;15.64;100.00;99979.21;105579;1256;69121;-66
2023/08/28 02:00:39;;;;;;;3.10;2.20;;;;;;;15.67;100.00;99981.38;105541;1254;74904;-66
2023/08/28 02:03:09;;;;;;;3.30;2.30;;;;;;;15.66;100.00;100002.71;105519;1257;83256;-66
2023/08/28 02:05:37;;;;;;;4.40;2.40;;;;;;;15.66;100.00;100009.21;105589;1255;73841;-66
2023/08/28 02:08:05;;;;;;;3.10;2.10;;;;;;;15.67;100.00;100022.58;105465;1257;69194;-67
2023/08/28 02:10:32;;;;;;;4.00;2.60;;;;;;;15.65;100.00;100032.54;105634;1253;69185;-67
2023/08/28 02:12:59;;;;;;;4.70;2.30;;;;;;;15.64;100.00;100032.62;105566;1257;73777;-67
2023/08/28 02:15:26;;;;;;;2.20;2.00;;;;;;;15.63;100.00;100021.05;105554;1254;83730;-67
2023/08/28 02:17:53;;;;;;;4.90;2.50;;;;;;;15.62;100.00;100017.41;105546;1255;72976;-66
2023/08/28 02:20:20;;;;;;;7.60;2.90;;;;;;;15.60;100.00;100019.63;105470;1254;69336;-67
2023/08/28 02:22:49;;;;;;;4.60;2.50;;;;;;;15.59;100.00;100019.15;105591;1256;69105;-67
2023/08/28 02:25:20;;;;;;;4.30;2.60;;;;;;;15.60;100.00;100019.85;105644;1255;73463;-67
2023/08/28 02:27:47;;;;;;;3.80;2.50;;;;;;;15.60;100.00;100019.84;105507;1256;83540;-66
2023/08/28 02:30:15;;;;;;;4.60;2.60;;;;;;;15.59;100.00;100014.20;105442;1254;73689;-67
2023/08/28 02:32:43;;;;;;;7.50;2.70;;;;;;;15.60;100.00;100011.38;105517;1256;69205;-67
2023/08/28 02:35:11;;;;;;;9.70;2.90;;;;;;;15.61;100.00;100006.93;105538;1254;69083;-67
2023/08/28 02:37:39;;;;;;;3.60;2.30;;;;;;;15.60;100.00;100008.34;105649;1254;73748;-67
2023/08/28 02:40:09;;;;;;;4.30;2.50;;;;;;;15.60;100.00;100006.77;105612;1254;82336;-66
2023/08/28 02:42:38;;;;;;;4.70;2.50;;;;;;;15.59;100.00;100009.13;105524;1254;73761;-67
2023/08/28 02:45:06;;;;;;;4.50;2.40;;;;;;;15.58;100.00;100013.40;105651;1254;69074;-67
2023/08/28 02:47:36;;;;;;;4.90;2.40;;;;;;;15.57;100.00;100017.20;105600;1256;69174;-67
2023/08/28 02:50:04;;;;;;;4.50;2.90;;;;;;;15.53;100.00;100006.34;105506;1254;74931;-67
2023/08/28 02:52:31;;;;;;;4.00;2.40;;;;;;;15.52;100.00;100004.30;105609;1257;83566;-66
2023/08/28 02:54:58;;;;;;;6.70;3.10;;;;;;;15.51;100.00;100000.88;105526;1255;72691;-67
2023/08/28 02:57:25;;;;;;;6.40;2.60;;;;;;;15.51;100.00;100006.68;105518;1254;69170;-67
2023/08/28 02:59:52;;;;;;;7.10;2.50;;;;;;;15.50;100.00;100009.91;105607;1254;69081;-67
2023/08/28 03:02:19;;;;;;;3.90;2.10;;;;;;;15.46;100.00;100012.09;105679;1254;74462;-67
2023/08/28 03:04:45;;;;;;;3.90;2.30;;;;;;;15.45;100.00;100016.22;105470;1254;83272;-67
2023/08/28 03:07:12;;;;;;;4.90;2.70;;;;;;;15.41;100.00;100022.60;105566;1257;73845;-69
2023/08/28 03:09:39;;;;;;;4.60;1.90;;;;;;;15.39;100.00;100032.56;105474;1254;69094;-69
2023/08/28 03:12:07;;;;;;;3.50;2.30;;;;;;;15.38;100.00;100021.92;105492;1254;69065;-69
2023/08/28 03:14:34;;;;;;;4.90;2.00;;;;;;;15.37;100.00;100025.88;105564;1254;73653;-68
2023/08/28 03:17:01;;;;;;;5.00;2.20;;;;;;;15.36;100.00;100027.67;105538;1257;83234;-69
2023/08/28 03:19:27;;;;;;;5.30;2.40;;;;;;;15.35;100.00;100031.25;105624;1254;72667;-68
2023/08/28 03:21:54;;;;;;;4.10;2.10;;;;;;;15.34;100.00;100034.31;105576;1256;69193;-69
2023/08/28 03:24:23;;;;;;;3.70;2.50;;;;;;;15.34;100.00;100044.72;105639;1257;69141;-68
2023/08/28 03:26:50;;;;;;;4.70;2.40;;;;;;;15.33;100.00;100047.20;105557;1254;74751;-68
2023/08/28 03:29:17;;;;;;;6.90;2.50;;;;;;;15.37;100.00;100052.98;105549;1254;82429;-68
2023/08/28 03:31:44;;;;;;;4.40;2.40;;;;;;;15.37;100.00;100059.13;105517;1254;73638;-68
2023/08/28 03:34:13;;;;;;;3.70;2.40;;;;;;;15.36;100.00;100064.79;105548;1254;69084;-68
2023/08/28 03:36:41;;;;;;;4.00;2.50;;;;;;;15.36;100.00;100066.61;105541;1256;69181;-68
2023/08/28 03:39:09;;;;;;;6.60;2.30;;;;;;;15.36;100.00;100064.81;105628;1254;74968;-68
2023/08/28 03:41:35;;;;;;;2.80;2.50;;;;;;;15.36;100.00;100059.34;105546;1256;83369;-68
2023/08/28 03:44:03;;;;;;;4.50;2.40;;;;;;;15.36;100.00;100064.28;105519;1256;73780;-68
2023/08/28 03:46:30;;;;;;;5.30;2.80;;;;;;;15.35;100.00;100062.41;105627;1252;69065;-66
2023/08/28 03:48:57;;;;;;;5.10;2.60;;;;;;;15.37;100.00;100061.40;105621;1256;69227;-68
2023/08/28 03:51:24;;;;;;;3.80;2.80;;;;;;;15.40;100.00;100063.69;105528;1254;73787;-68
2023/08/28 03:53:52;;;;;;;4.10;2.90;;;;;;;15.45;100.00;100061.28;105612;1256;82485;-68
2023/08/28 03:56:19;;;;;;;7.40;2.90;;;;;;;15.50;100.00;100068.52;105479;1256;73855;-68
2023/08/28 03:58:48;;;;;;;3.80;2.90;;;;;;;15.53;100.00;100071.51;105612;1254;69081;-68
2023/08/28 04:01:15;;;;;;;4.80;2.60;;;;;;;15.53;100.00;100078.73;105576;1254;69185;-68
2023/08/28 04:03:42;;;;;;;3.70;2.50;;;;;;;15.52;100.00;100082.52;105597;1252;75019;-68
2023/08/28 04:06:09;;;;;;;3.90;2.30;;;;;;;15.51;100.00;100082.77;105518;1253;83320;-68
2023/08/28 04:08:36;;;;;;;3.30;2.30;;;;;;;15.49;100.00;100083.91;105555;1257;73831;-68
2023/08/28 04:11:03;;;;;;;4.90;2.60;;;;;;;15.49;100.00;100090.09;105608;1256;69185;-68
2023/08/28 04:13:30;;;;;;;4.10;2.30;;;;;;;15.48;100.00;100101.77;105541;1256;69278;-68
2023/08/28 04:15:57;;;;;;;5.10;2.60;;;;;;;15.47;100.00;100109.27;105500;1252;74186;-68
2023/08/28 04:18:24;;;;;;;3.60;2.40;;;;;;;15.45;100.00;100112.71;105449;1254;82329;-68
2023/08/28 04:20:51;;;;;;;3.30;2.20;;;;;;;15.43;100.00;100111.94;105519;1256;73838;-68
2023/08/28 04:23:18;;;;;;;2.50;2.10;;;;;;;15.42;100.00;100118.73;105487;1257;70898;-68
2023/08/28 04:25:45;;;;;;;2.80;2.40;;;;;;;15.41;100.00;100121.93;105598;1253;69871;-68
2023/08/28 04:28:15;;;;;;;7.70;2.40;;;;;;;15.39;100.00;100119.02;105569;1253;73818;-68
2023/08/28 04:30:43;;;;;;;5.10;2.60;;;;;;;15.40;100.00;100121.95;105482;1253;82487;-68
2023/08/28 04:33:09;;;;;;;3.60;2.20;;;;;;;15.42;100.00;100123.60;105469;1254;72751;-68
2023/08/28 04:35:36;;;;;;;2.60;2.20;;;;;;;15.43;100.00;100115.27;105628;1255;69194;-68
2023/08/28 04:38:03;;;;;;;4.70;2.20;;;;;;;15.45;100.00;100116.58;105416;1256;69189;-68
2023/08/28 04:40:30;;;;;;;4.10;2.50;;;;;;;15.45;100.00;100119.56;105489;1254;74677;-68
2023/08/28 04:42:57;;;;;;;4.40;2.30;;;;;;;15.46;100.00;100112.27;105518;1256;83429;-68
2023/08/28 04:45:24;;;;;;;5.30;2.40;;;;;;;15.49;100.00;100103.12;105484;1254;72635;-68
2023/08/28 04:47:51;;;;;;;4.20;2.80;;;;;;;15.51;100.00;100098.43;105537;1251;69182;-68
2023/08/28 04:50:18;;;;;;;3.70;2.80;;;;;;;15.56;100.00;100101.79;105575;1256;69106;-69
2023/08/28 04:52:45;;;;;;;3.60;2.40;;;;;;;15.58;100.00;100101.98;105515;1254;74781;-69
2023/08/28 04:55:12;;;;;;;4.70;2.50;;;;;;;15.58;100.00;100103.62;105515;1257;83722;-68
2023/08/28 04:57:40;;;;;;;3.90;2.30;;;;;;;15.59;100.00;100101.63;105552;1254;72678;-69
2023/08/28 05:00:07;;;;;;;3.70;2.60;;;;;;;15.60;100.00;100102.95;105490;1254;69282;-69
2023/08/28 05:02:34;;;;;;;3.70;2.40;;;;;;;15.63;100.00;100105.45;105644;1256;69198;-69
2023/08/28 05:05:02;;;;;;;4.40;2.50;;;;;;;15.65;100.00;100100.20;105613;1254;75211;-68
2023/08/28 05:07:29;;;;;;;5.70;2.50;;;;;;;15.67;100.00;100095.10;105798;1257;82556;-65
2023/08/28 05:09:56;;;;;;;3.40;2.30;;;;;;;15.72;100.00;100099.05;105578;1257;72578;-64
2023/08/28 05:12:23;;;;;;;14.20;9.80;;;;;;;15.75;100.00;100109.65;105636;1254;69081;-64
2023/08/28 05:14:50;;;;;;;5.80;3.10;;;;;;;15.76;100.00;100115.19;105623;1256;69256;-67
2023/08/28 05:17:17;;;;;;;3.80;2.60;;;;;;;15.77;100.00;100117.77;105663;1254;74797;-64
2023/08/28 05:19:44;;;;;;;3.90;2.50;;;;;;;15.80;100.00;100122.33;105609;1254;83315;-65
2023/08/28 05:22:11;;;;;;;4.40;2.40;;;;;;;15.83;100.00;100121.06;105636;1252;72541;-64
2023/08/28 05:24:38;;;;;;;5.90;2.60;;;;;;;15.86;100.00;100116.49;105556;1254;69101;-63
2023/08/28 05:27:05;;;;;;;3.20;2.40;;;;;;;15.91;100.00;100112.85;105835;1254;69169;-63
2023/08/28 05:29:32;;;;;;;3.80;2.20;;;;;;;15.96;100.00;100115.70;105636;1253;73166;-63
2023/08/28 05:31:59;;;;;;;3.50;2.40;;;;;;;16.01;100.00;100114.67;105586;1255;83407;-63
2023/08/28 05:34:26;;;;;;;5.90;2.50;;;;;;;16.04;100.00;100117.96;105714;1254;72663;-63
2023/08/28 05:36:53;;;;;;;4.80;2.40;;;;;;;16.05;100.00;100124.63;105626;1257;69127;-63
2023/08/28 05:39:20;;;;;;;4.00;2.40;;;;;;;16.08;100.00;100122.84;105807;1254;69182;-63
2023/08/28 05:41:47;;;;;;;3.70;2.50;;;;;;;16.13;100.00;100123.08;105650;1256;74706;-63
2023/08/28 05:44:15;;;;;;;2.70;2.30;;;;;;;16.16;100.00;100124.14;105766;1254;82335;-62
2023/08/28 05:46:41;;;;;;;4.40;2.60;;;;;;;16.18;100.00;100127.09;105633;1254;72907;-61
2023/08/28 05:49:08;;;;;;;4.20;2.10;;;;;;;16.20;100.00;100130.37;105693;1254;69426;-63
2023/08/28 05:51:35;;;;;;;4.80;2.10;;;;;;;16.21;100.00;100130.85;105576;1257;69737;-61
2023/08/28 05:54:03;;;;;;;3.00;2.10;;;;;;;16.24;100.00;100127.28;105690;1253;73700;-61
2023/08/28 05:56:30;;;;;;;2.60;2.20;;;;;;;16.26;100.00;100130.11;105808;1256;83328;-66
2023/08/28 05:58:57;;;;;;;6.00;2.40;;;;;;;16.26;100.00;100131.91;105618;1251;72570;-63
2023/08/28 06:01:24;;;;;;;3.00;2.20;;;;;;;16.26;100.00;100134.52;105569;1254;69250;-63
2023/08/28 06:03:55;;;;;;;4.60;2.20;;;;;;;16.28;100.00;100136.88;105578;1254;69164;-63
2023/08/28 06:06:23;;;;;;;3.80;2.40;;;;;;;16.30;100.00;100135.70;105462;1253;73519;-63
2023/08/28 06:08:51;;;;;;;2.80;1.90;;;;;;;16.33;100.00;100138.67;105743;1254;82937;-63
2023/08/28 06:11:18;;;;;;;4.70;2.10;;;;;;;16.35;100.00;100137.85;105559;1252;72592;-63
2023/08/28 06:13:45;;;;;;;5.40;1.80;;;;;;;16.39;100.00;100133.02;105644;1253;69170;-65
2023/08/28 06:16:12;;;;;;;3.10;2.10;;;;;;;16.39;100.00;100131.56;105620;1254;69201;-65
2023/08/28 06:18:39;;;;;;;2.90;2.20;;;;;;;16.39;100.00;100129.15;105566;1254;73414;-64
2023/08/28 06:21:06;;;;;;;4.50;1.90;;;;;;;16.39;100.00;100126.63;105556;1254;82616;-64
2023/08/28 06:23:33;;;;;;;2.40;2.00;;;;;;;16.40;100.00;100130.08;105583;1255;73819;-64
2023/08/28 06:26:00;;;;;;;4.60;2.20;;;;;;;16.39;100.00;100131.75;105624;1256;69144;-64
2023/08/28 06:28:27;;;;;;;4.20;2.20;;;;;;;16.38;100.00;100137.82;105593;1254;69157;-65
2023/08/28 06:30:54;;;;;;;5.30;2.10;;;;;;;16.41;100.00;100137.30;105645;1253;73659;-65
2023/08/28 06:33:22;;;;;;;3.40;2.00;;;;;;;16.43;100.00;100129.58;105581;1256;83826;-65
2023/08/28 06:35:48;;;;;;;4.40;2.30;;;;;;;16.44;100.00;100126.65;105693;1251;72605;-65
2023/08/28 06:38:15;;;;;;;4.10;2.30;;;;;;;16.47;100.00;100116.44;105918;1254;69079;-65
2023/08/28 06:40:48;;;;;;;3.30;2.20;;;;;;;16.52;100.00;100114.69;105627;1257;69196;-64
2023/08/28 06:43:15;;;;;;;3.70;1.90;;;;;;;16.57;100.00;100115.25;105692;1255;74865;-64
2023/08/28 06:45:42;;;;;;;3.00;2.00;;;;;;;16.56;100.00;100113.52;105626;1256;83340;-64
2023/08/28 06:48:09;;;;;;;3.10;2.10;;;;;;;16.60;100.00;100115.02;105542;1256;73859;-65
2023/08/28 06:50:36;;;;;;;2.90;2.00;;;;;;;16.65;100.00;100116.11;105582;1254;69048;-65
2023/08/28 06:53:03;;;;;;;3.70;2.20;;;;;;;16.67;100.00;100115.98;105596;1254;69068;-65
2023/08/28 06:55:32;;;;;;;3.50;2.20;;;;;;;16.69;100.00;100116.05;105871;1254;74709;-65
2023/08/28 06:57:59;;;;;;;5.20;2.00;;;;;;;16.70;100.00;100112.81;105632;1254;83326;-65
2023/08/28 07:00:26;;;;;;;2.50;1.90;;;;;;;16.70;100.00;100110.45;105601;1256;74086;-65
2023/08/28 07:02:53;;;;;;;3.60;2.20;;;;;;;16.72;100.00;100110.53;105588;1253;69192;-66
2023/08/28 07:05:21;;;;;;;4.50;2.20;;;;;;;16.76;100.00;100112.27;105638;1256;69196;-65
2023/08/28 07:07:48;;;;;;;3.40;2.30;;;;;;;16.81;100.00;100113.12;105712;1256;73963;-66
2023/08/28 07:10:15;;;;;;;3.20;2.10;;;;;;;16.93;100.00;100113.94;105669;1254;82296;-66
2023/08/28 07:12:42;;;;;;;4.00;2.10;;;;;;;17.02;100.00;100115.25;105528;1257;72512;-65
2023/08/28 07:15:12;;;;;;;5.30;2.20;;;;;;;17.12;100.00;100117.75;105520;1253;69145;-65
2023/08/28 07:17:39;;;;;;;3.60;1.90;;;;;;;17.20;100.00;100123.17;105523;1253;69140;-65
2023/08/28 07:20:09;;;;;;;2.60;1.80;;;;;;;17.19;100.00;100128.73;105733;1254;73708;-65
2023/08/28 07:22:36;;;;;;;7.90;2.00;;;;;;;17.21;100.00;100128.93;105656;1254;82271;-67
2023/08/28 07:25:04;;;;;;;4.80;2.00;;;;;;;17.24;100.00;100137.21;105735;1253;72727;-64
2023/08/28 07:27:31;;;;;;;4.20;2.00;;;;;;;17.26;100.00;100134.61;105646;1252;69162;-67
2023/08/28 07:29:58;;;;;;;2.90;1.60;;;;;;;17.29;100.00;100137.21;105533;1256;69074;-66
2023/08/28 07:32:25;;;;;;;4.70;1.70;;;;;;;17.33;100.00;100143.65;105473;1254;73828;-66
2023/08/28 07:34:52;;;;;;;2.20;1.80;;;;;;;17.36;100.00;100146.46;105490;1256;83328;-68
2023/08/28 07:37:19;;;;;;;4.30;1.60;;;;;;;17.38;100.00;100154.98;105522;1254;74137;-66
2023/08/28 07:39:46;;;;;;;2.20;1.30;;;;;;;17.35;100.00;100162.23;105495;1252;69163;-66
2023/08/28 07:42:13;;;;;;;2.40;1.60;;;;;;;17.33;100.00;100165.57;105667;1254;69213;-66
2023/08/28 07:44:40;;;;;;;3.60;1.50;;;;;;;17.33;100.00;100167.15;105510;1254;73783;-66
2023/08/28 07:47:07;;;;;;;4.20;1.60;;;;;;;17.33;100.00;100174.22;105633;1256;82379;-64
2023/08/28 07:49:34;;;;;;;1.70;1.50;;;;;;;17.27;100.00;100175.30;105686;1254;73558;-65
2023/08/28 07:52:01;;;;;;;3.60;1.50;;;;;;;17.23;100.00;100177.90;105565;1251;69052;-64
2023/08/28 07:54:27;;;;;;;4.20;1.30;;;;;;;17.22;100.00;100180.30;105524;1256;69113;-66
2023/08/28 07:56:54;;;;;;;1.60;1.00;;;;;;;17.23;100.00;100182.31;105260;1256;309504;-67
2023/08/28 07:59:22;;;;;;;4.40;1.60;;;;;;;17.17;100.00;100186.07;105689;1254;81865;-67
2023/08/28 08:01:49;;;;;;;2.40;1.20;;;;;;;17.14;100.00;100178.52;105573;1254;74376;-67
2023/08/28 08:04:15;;;;;;;1.90;1.20;;;;;;;17.11;100.00;100179.56;105577;1256;69225;-67
2023/08/28 08:06:42;;;;;;;2.80;1.60;;;;;;;17.12;100.00;100182.84;105581;1255;69136;-67
2023/08/28 08:09:09;;;;;;;3.00;1.20;;;;;;;17.10;100.00;100181.58;105564;1254;73730;-67
2023/08/28 08:11:36;;;;;;;3.30;1.40;;;;;;;17.08;100.00;100188.41;105552;1255;83305;-67
2023/08/28 08:14:03;;;;;;;3.20;1.20;;;;;;;17.04;100.00;100192.05;105665;1254;74007;-67
2023/08/28 08:16:30;;;;;;;1.70;1.10;;;;;;;16.96;100.00;100194.55;105567;1252;69105;-67
2023/08/28 08:18:57;;;;;;;2.10;1.00;;;;;;;16.92;100.00;100203.79;105587;1256;69118;-66
2023/08/28 08:21:24;;;;;;;1.50;1.00;;;;;;;16.90;100.00;100203.91;105579;1256;73831;-67
2023/08/28 08:23:52;;;;;;;2.30;1.10;;;;;;;16.88;100.00;100212.21;105608;1257;83425;-68
2023/08/28 08:26:19;;;;;;;1.40;1.10;;;;;;;16.86;100.00;100211.25;105604;1254;73837;-68
2023/08/28 08:28:46;;;;;;;26.70;1.80;;;;;;;16.84;100.00;100210.33;105482;1254;69153;-71
2023/08/28 08:31:13;;;;;;;2.70;1.10;;;;;;;16.81;100.00;100211.27;105572;1254;69185;-69
2023/08/28 08:33:40;;;;;;;2.70;1.10;;;;;;;16.73;100.00;100207.67;105604;1254;74042;-69
2023/08/28 08:36:07;;;;;;;1.90;1.10;;;;;;;16.68;100.00;100208.52;105604;1256;83330;-67
2023/08/28 08:38:35;;;;;;;2.10;1.10;;;;;;;16.66;100.00;100204.05;105603;1252;73487;-66
2023/08/28 08:41:02;;;;;;;1.60;1.00;;;;;;;16.67;100.00;100201.69;105522;1254;69126;-67
2023/08/28 08:43:29;;;;;;;4.60;1.60;;;;;;;16.75;100.00;100194.02;105559;1255;69163;-68
2023/08/28 08:46:01;;;;;;;3.00;1.40;;;;;;;16.83;100.00;100190.65;105558;1254;74899;-71
2023/08/28 08:48:29;;;;;;;3.10;1.40;;;;;;;16.87;100.00;100182.27;105498;1254;83711;-67
2023/08/28 08:51:04;;;;;;;2.50;1.40;;;;;;;16.93;100.00;100171.59;105563;1253;72548;-67
2023/08/28 08:53:48;;;;;;;3.60;1.30;;;;;;;16.90;100.00;100160.91;105644;1255;69186;-67
2023/08/28 08:56:17;;;;;;;3.00;1.20;;;;;;;16.83;100.00;100151.30;105596;1253;69181;-68
2023/08/28 08:58:46;;;;;;;2.30;1.30;;;;;;;16.74;100.00;100145.52;105641;1254;74863;-67
2023/08/28 09:01:14;;;;;;;3.90;1.10;;;;;;;16.67;100.00;100137.46;105625;1254;81898;-67
2023/08/28 09:03:43;;;;;;;1.80;1.20;;;;;;;16.71;100.00;100130.51;105554;1253;72498;-68
2023/08/28 09:06:11;;;;;;;3.00;1.50;;;;;;;16.72;100.00;100136.46;105605;1255;69179;-67
2023/08/28 09:08:40;;;;;;;2.20;1.00;;;;;;;16.72;100.00;100140.52;105596;1256;69291;-67
2023/08/28 09:11:08;;;;;;;2.60;1.30;;;;;;;16.71;100.00;100137.94;105630;1253;73940;-67
2023/08/28 09:13:37;;;;;;;2.10;1.40;;;;;;;16.70;100.00;100136.92;105601;1254;82559;-67
2023/08/28 09:16:04;;;;;;;2.20;1.40;;;;;;;16.69;100.00;100142.67;105608;1254;72702;-67
2023/08/28 09:18:31;;;;;;;2.20;1.10;;;;;;;16.66;100.00;100150.10;105620;1257;69202;-67
2023/08/28 09:21:07;;;;;;;3.10;1.20;;;;;;;16.61;100.00;100155.52;105615;1253;69197;-67
2023/08/28 09:23:34;;;;;;;2.30;1.50;;;;;;;16.58;100.00;100158.54;105631;1256;73572;-68
2023/08/28 09:26:03;;;;;;;2.70;1.50;;;;;;;16.56;100.00;100160.83;105615;1256;83615;-68
2023/08/28 09:28:30;;;;;;;2.80;1.40;;;;;;;16.51;100.00;100164.30;105630;1255;73864;-68
2023/08/28 09:30:57;;;;;;;4.20;1.60;;;;;;;16.50;100.00;100157.63;105636;1252;69790;-67
2023/08/28 09:33:24;;;;;;;3.70;1.70;;;;;;;16.55;100.00;100158.56;105653;1256;69218;-67
2023/08/28 09:35:51;;;;;;;2.00;1.80;;;;;;;16.61;100.00;100148.83;105612;1254;73649;-67
2023/08/28 09:38:18;;;;;;;3.80;2.10;;;;;;;16.71;100.00;100146.60;105573;1254;82440;-67
2023/08/28 09:40:45;;;;;;;2.60;1.80;;;;;;;16.84;100.00;100153.73;105653;1254;72593;-67
2023/08/28 09:43:14;;;;;;;4.60;2.00;;;;;;;16.93;100.00;100152.92;105544;1254;69050;-68
2023/08/28 09:45:43;;;;;;;5.70;2.00;;;;;;;16.99;100.00;100156.91;105647;1254;69195;-68
2023/08/28 09:48:11;;;;;;;5.40;1.80;;;;;;;17.07;100.00;100162.01;105620;1256;75178;-68
2023/08/28 09:50:40;;;;;;;4.80;1.90;;;;;;;17.10;100.00;100166.98;105662;1256;83611;-67
2023/08/28 09:53:11;;;;;;;6.50;2.40;;;;;;;17.13;100.00;100163.20;105670;1253;72646;-68
2023/08/28 09:55:53;;;;;;;4.40;1.80;;;;;;;17.19;100.00;100161.04;105600;1252;69131;-68
2023/08/28 09:58:25;;;;;;;4.20;1.80;;;;;;;17.26;100.00;100160.89;105634;1256;69188;-68
2023/08/28 10:00:55;;;;;;;3.00;1.60;;;;;;;17.34;100.00;100158.27;105647;1254;74341;-67
2023/08/28 10:03:23;;;;;;;5.00;1.90;;;;;;;17.44;100.00;100156.16;105593;1255;83360;-67
2023/08/28 10:05:52;;;;;;;3.20;1.90;;;;;;;17.57;100.00;100142.70;105624;1256;72641;-68
2023/08/28 10:08:23;;;;;;;3.40;1.60;;;;;;;17.73;100.00;100131.16;105654;1254;69106;-70
2023/08/28 10:10:51;;;;;;;;;;;;;;;17.85;100.00;100128.68;105641;1253;69091;-69
2023/08/28 10:13:22;;;;;;;3.20;1.70;;;;;;;18.03;100.00;100126.91;105537;1254;74840;-68
2023/08/28 10:16:04;;;;;;;5.70;1.80;;;;;;;18.21;100.00;100142.74;105606;1256;84126;-68
2023/08/28 10:18:51;;;;;;;2.40;1.30;;;;;;;18.37;100.00;100143.71;105577;1254;73532;-68
2023/08/28 10:21:19;;;;;;;2.30;1.50;;;;;;;18.51;100.00;100150.61;105198;1258;69108;-67
2023/08/28 10:23:47;;;;;;;2.40;1.60;;;;;;;18.63;99.60;100126.89;105074;1257;69119;-68
2023/08/28 10:26:14;;;;;;;5.20;1.90;;;;;;;18.69;99.21;100112.81;105163;1256;74966;-67
2023/08/28 10:28:42;;;;;;;2.30;1.70;;;;;;;18.75;98.94;100117.38;105154;1262;83658;-67
2023/08/28 10:31:09;;;;;;;2.70;1.50;;;;;;;18.79;98.57;100129.61;105089;1257;72637;-67
2023/08/28 10:33:36;;;;;;;3.90;1.50;;;;;;;18.79;97.71;100140.11;105202;1258;69109;-67
2023/08/28 10:36:08;;;;;;;2.50;1.70;;;;;;;18.78;97.79;100134.70;105154;1260;69205;-65
2023/08/28 10:38:35;;;;;;;3.50;1.60;;;;;;;18.80;97.51;100132.08;105230;1256;74825;-66
2023/08/28 10:41:11;;;;;;;1.60;1.20;;;;;;;18.76;96.80;100118.88;105514;1256;83219;-67
2023/08/28 10:43:38;;;;;;;3.00;1.40;;;;;;;18.69;96.16;100104.66;105518;1254;73898;-67
2023/08/28 10:46:05;;;;;;;3.60;1.60;;;;;;;18.61;95.97;100098.18;105490;1256;69311;-67
2023/08/28 10:48:37;;;;;;;2.70;1.20;;;;;;;18.55;95.65;100091.41;105479;1255;69296;-69
2023/08/28 10:51:04;;;;;;;2.50;1.50;;;;;;;18.48;95.57;100088.36;105636;1254;73821;-69
2023/08/28 10:53:33;;;;;;;1.60;1.20;;;;;;;18.47;95.90;100104.52;105538;1254;82547;-69
2023/08/28 10:56:00;;;;;;;2.10;1.10;;;;;;;18.45;95.70;100108.58;105577;1256;71786;-69
2023/08/28 10:58:31;;;;;;;2.50;1.20;;;;;;;18.44;95.98;100090.80;105590;1257;69122;-69
2023/08/28 11:01:17;;;;;;;1.10;0.90;;;;;;;18.44;95.62;100090.46;105540;1256;69182;-69
2023/08/28 11:03:57;;;;;;;1.70;1.00;;;;;;;18.32;94.29;100114.71;105552;1256;73341;-69
2023/08/28 11:06:43;;;;;;;1.70;0.70;;;;;;;18.20;94.23;100104.05;105595;1255;83315;-69
2023/08/28 11:09:34;;;;;;;1.50;0.80;;;;;;;18.12;94.00;100084.16;105588;1255;72720;-69
2023/08/28 11:12:01;;;;;;;2.70;1.10;;;;;;;18.01;93.70;100093.11;105586;1254;69194;-69
2023/08/28 11:14:33;;;;;;;3.00;0.80;;;;;;;17.93;93.28;100135.77;105572;1256;69157;-69